createdAt,value
2018-07-17T00:00:26.403Z,100063.16
2018-07-17T00:02:56.518Z,100066.41
2018-07-17T00:05:26.154Z,100074.52
2018-07-17T00:07:56.060Z,100065.84
2018-07-17T00:10:26.557Z,100062.64
2018-07-17T00:12:56.284Z,100064.28
2018-07-17T00:15:26.025Z,100064.09
2018-07-17T00:17:55.970Z,100064.91
2018-07-17T00:20:25.624Z,100065.19
2018-07-17T00:22:55.271Z,100068.85
2018-07-17T00:25:24.928Z,100064.54
2018-07-17T00:27:54.634Z,100070.20
2018-07-17T00:30:24.270Z,100065.33
2018-07-17T00:32:54.162Z,100066.45
2018-07-17T00:35:23.791Z,100059.21
2018-07-17T00:37:53.405Z,100060.80
2018-07-17T00:40:23.515Z,100057.31
2018-07-17T00:42:53.923Z,100050.62
2018-07-17T00:45:23.596Z,100051.06
2018-07-17T00:47:53.456Z,100056.88
2018-07-17T00:50:23.366Z,100057.45
2018-07-17T00:52:53.744Z,100058.83
2018-07-17T00:55:23.414Z,100057.19
2018-07-17T00:57:53.228Z,100059.88
2018-07-17T01:00:26.996Z,100059.61
2018-07-17T01:03:01.950Z,100051.23
2018-07-17T01:05:37.283Z,100048.02
2018-07-17T01:08:12.033Z,100049.95
2018-07-17T01:10:46.759Z,100044.55
2018-07-17T01:13:23.530Z,100049.95
2018-07-17T01:15:53.613Z,100039.98
2018-07-17T01:18:23.516Z,100042.41
2018-07-17T01:20:53.192Z,100042.69
2018-07-17T01:23:23.184Z,100043.73
2018-07-17T01:25:52.813Z,100039.72
2018-07-17T01:28:22.602Z,100040.27
2018-07-17T01:30:52.235Z,100030.84
2018-07-17T01:33:22.114Z,100031.93
2018-07-17T01:35:51.788Z,100028.41
2018-07-17T01:38:21.525Z,100032.68
2018-07-17T01:40:51.124Z,100030.58
2018-07-17T01:43:20.783Z,100031.93
2018-07-17T01:45:50.936Z,100025.16
2018-07-17T01:48:21.312Z,100025.97
2018-07-17T01:50:51.142Z,100021.94
2018-07-17T01:53:20.813Z,100025.41
2018-07-17T01:55:50.407Z,100028.62
2018-07-17T01:58:20.385Z,100027.55
2018-07-17T02:00:50.729Z,100028.88
2018-07-17T02:03:20.597Z,100026.45
2018-07-17T02:05:50.754Z,100028.30
2018-07-17T02:08:20.413Z,100026.69
2018-07-17T02:10:50.007Z,100026.20
2018-07-17T02:13:19.580Z,100017.64
2018-07-17T02:15:49.599Z,100013.86
2018-07-17T02:18:19.989Z,100011.98
2018-07-17T02:20:49.620Z,100017.57
2018-07-17T02:23:19.921Z,100017.80
2018-07-17T02:25:49.600Z,100020.47
2018-07-17T02:28:19.177Z,100013.95
2018-07-17T02:30:48.787Z,100019.59
2018-07-17T02:33:18.365Z,100026.08
2018-07-17T02:35:47.997Z,100027.95
2018-07-17T02:38:17.622Z,100031.71
2018-07-17T02:40:47.362Z,100035.73
2018-07-17T02:43:16.966Z,100043.05
2018-07-17T02:45:46.672Z,100040.30
2018-07-17T02:48:16.434Z,100051.55
2018-07-17T02:50:46.650Z,100054.40
2018-07-17T02:53:16.948Z,100051.53
2018-07-17T02:55:46.538Z,100042.92
2018-07-17T02:58:15.892Z,100041.22
2018-07-17T03:00:45.732Z,100031.30
2018-07-17T03:03:15.566Z,100037.56
2018-07-17T03:05:51.971Z,100037.05
2018-07-17T03:08:21.688Z,100042.33
2018-07-17T03:10:51.391Z,100042.00
2018-07-17T03:13:21.084Z,100040.87
2018-07-17T03:15:50.711Z,100041.91
2018-07-17T03:18:20.934Z,100037.55
2018-07-17T03:20:50.759Z,100041.34
2018-07-17T03:23:20.395Z,100047.38
2018-07-17T03:25:50.267Z,100036.57
2018-07-17T03:28:20.533Z,100035.44
2018-07-17T03:30:50.945Z,100035.20
2018-07-17T03:33:20.652Z,100037.59
2018-07-17T03:35:51.227Z,100039.77
2018-07-17T03:38:21.074Z,100037.37
2018-07-17T03:40:51.448Z,100033.61
2018-07-17T03:43:21.226Z,100037.16
2018-07-17T03:45:51.161Z,100037.67
2018-07-17T03:48:20.902Z,100044.69
2018-07-17T03:50:51.272Z,100044.98
2018-07-17T03:53:20.998Z,100043.11
2018-07-17T03:55:50.711Z,100045.04
2018-07-17T03:58:20.942Z,100050.47
2018-07-17T04:00:50.926Z,100050.25
2018-07-17T04:03:20.945Z,100054.58
2018-07-17T04:05:50.684Z,100049.48
2018-07-17T04:08:20.495Z,100058.69
2018-07-17T04:10:50.217Z,100052.09
2018-07-17T04:13:20.058Z,100056.98
2018-07-17T04:15:49.774Z,100063.28
2018-07-17T04:18:20.180Z,100053.30
2018-07-17T04:20:49.963Z,100057.90
2018-07-17T04:23:19.757Z,100062.84
2018-07-17T04:25:50.229Z,100061.07
2018-07-17T04:28:23.128Z,100067.68
2018-07-17T04:30:52.913Z,100064.84
2018-07-17T04:33:22.761Z,100069.16
2018-07-17T04:35:52.332Z,100069.45
2018-07-17T04:38:22.319Z,100070.71
2018-07-17T04:40:52.115Z,100068.36
2018-07-17T04:43:21.971Z,100070.02
2018-07-17T04:45:52.417Z,100065.46
2018-07-17T04:48:22.147Z,100064.86
2018-07-17T04:50:51.500Z,100065.21
2018-07-17T04:53:21.516Z,100072.41
2018-07-17T04:55:51.178Z,100077.19
2018-07-17T04:58:21.234Z,100080.30
2018-07-17T05:00:51.012Z,100078.92
2018-07-17T05:03:21.041Z,100076.87
2018-07-17T05:05:50.893Z,100082.33
2018-07-17T05:08:20.915Z,100086.43
2018-07-17T05:10:50.574Z,100091.53
2018-07-17T05:13:20.133Z,100093.20
2018-07-17T05:15:50.367Z,100089.41
2018-07-17T05:18:20.332Z,100083.30
2018-07-17T05:20:50.069Z,100084.20
2018-07-17T05:23:20.052Z,100092.30
2018-07-17T05:25:49.817Z,100093.23
2018-07-17T05:28:19.680Z,100085.27
2018-07-17T05:30:49.719Z,100082.86
2018-07-17T05:33:19.455Z,100080.97
2018-07-17T05:35:49.674Z,100082.28
2018-07-17T05:38:19.555Z,100079.94
2018-07-17T05:40:49.213Z,100081.80
2018-07-17T05:43:19.159Z,100086.38
2018-07-17T05:45:49.561Z,100083.55
2018-07-17T05:48:19.244Z,100086.92
2018-07-17T05:50:49.016Z,100088.81
2018-07-17T05:53:19.075Z,100085.33
2018-07-17T05:55:49.303Z,100091.86
2018-07-17T05:58:19.718Z,100085.22
2018-07-17T06:00:49.626Z,100086.38
2018-07-17T06:03:19.418Z,100083.44
2018-07-17T06:05:49.059Z,100075.14
2018-07-17T06:08:23.378Z,100075.97
2018-07-17T06:10:53.304Z,100084.55
2018-07-17T06:13:23.622Z,100089.25
2018-07-17T06:15:54.012Z,100089.89
2018-07-17T06:18:23.849Z,100098.80
2018-07-17T06:20:53.611Z,100101.11
2018-07-17T06:23:23.352Z,100098.05
2018-07-17T06:25:53.717Z,100104.20
2018-07-17T06:28:23.530Z,100102.41
2018-07-17T06:30:53.176Z,100106.20
2018-07-17T06:33:23.017Z,100106.20
2018-07-17T06:35:52.670Z,100109.11
2018-07-17T06:38:22.322Z,100104.20
2018-07-17T06:40:51.724Z,100108.08
2018-07-17T06:43:21.653Z,100111.86
2018-07-17T06:45:51.910Z,100111.56
2018-07-17T06:48:21.735Z,100117.54
2018-07-17T06:50:51.490Z,100126.51
2018-07-17T06:53:21.188Z,100123.67
2018-07-17T06:55:51.028Z,100121.36
2018-07-17T06:58:20.814Z,100122.47
2018-07-17T07:00:50.394Z,100129.34
2018-07-17T07:03:20.175Z,100131.39
2018-07-17T07:05:49.889Z,100125.46
2018-07-17T07:08:19.937Z,100126.38
2018-07-17T07:10:49.775Z,100124.70
2018-07-17T07:13:19.500Z,100123.52
2018-07-17T07:15:49.160Z,100121.48
2018-07-17T07:18:18.854Z,100126.55
2018-07-17T07:20:48.528Z,100118.41
2018-07-17T07:23:18.232Z,100126.54
2018-07-17T07:25:47.900Z,100122.09
2018-07-17T07:28:17.654Z,100126.37
2018-07-17T07:30:47.329Z,100124.42
2018-07-17T07:33:17.081Z,100122.24
2018-07-17T07:35:46.414Z,100118.84
2018-07-17T07:38:16.233Z,100124.49
2018-07-17T07:40:46.282Z,100131.40
2018-07-17T07:43:16.024Z,100129.41
2018-07-17T07:45:45.773Z,100123.41
2018-07-17T07:48:15.433Z,100126.91
2018-07-17T07:50:45.262Z,100120.31
2018-07-17T07:53:14.910Z,100116.95
2018-07-17T07:55:44.684Z,100123.15
2018-07-17T07:58:14.308Z,100129.48
2018-07-17T08:00:44.831Z,100129.24
2018-07-17T08:03:14.468Z,100114.28
2018-07-17T08:05:44.152Z,100124.84
2018-07-17T08:08:13.747Z,100127.89
2018-07-17T08:10:43.562Z,100121.27
2018-07-17T08:13:13.886Z,100124.27
2018-07-17T08:15:43.702Z,100119.13
2018-07-17T08:18:13.444Z,100119.72
2018-07-17T08:20:43.065Z,100127.64
2018-07-17T08:23:12.764Z,100119.05
2018-07-17T08:25:42.474Z,100118.17
2018-07-17T08:28:12.268Z,100119.38
2018-07-17T08:30:42.035Z,100120.64
2018-07-17T08:33:11.790Z,100125.12
2018-07-17T08:35:41.562Z,100118.69
2018-07-17T08:38:16.793Z,100117.74
2018-07-17T08:40:46.359Z,100116.69
2018-07-17T08:43:16.758Z,100110.30
2018-07-17T08:45:46.313Z,100113.23
2018-07-17T08:48:16.051Z,100112.78
2018-07-17T08:50:46.852Z,100116.16
2018-07-17T08:53:16.635Z,100110.41
2018-07-17T08:55:46.450Z,100116.38
2018-07-17T08:58:16.140Z,100117.25
2018-07-17T09:00:46.552Z,100111.57
2018-07-17T09:03:16.292Z,100112.23
2018-07-17T09:05:45.996Z,100116.31
2018-07-17T09:08:15.788Z,100123.46
2018-07-17T09:10:45.577Z,100124.50
2018-07-17T09:13:15.323Z,100131.27
2018-07-17T09:15:45.026Z,100120.06
2018-07-17T09:18:14.737Z,100126.34
2018-07-17T09:20:44.388Z,100122.41
2018-07-17T09:23:14.251Z,100135.35
2018-07-17T09:25:43.968Z,100126.23
2018-07-17T09:28:13.701Z,100125.14
2018-07-17T09:30:48.617Z,100127.73
2018-07-17T09:33:19.055Z,100128.52
2018-07-17T09:35:48.733Z,100130.16
2018-07-17T09:38:18.316Z,100134.59
2018-07-17T09:40:47.932Z,100128.74
2018-07-17T09:43:17.635Z,100126.14
2018-07-17T09:45:47.278Z,100124.17
2018-07-17T09:48:17.034Z,100127.06
2018-07-17T09:50:46.807Z,100123.29
2018-07-17T09:53:16.691Z,100127.62
2018-07-17T09:55:46.909Z,100131.83
2018-07-17T09:58:16.685Z,100128.37
2018-07-17T10:00:52.177Z,100131.11
2018-07-17T10:03:21.731Z,100128.22
2018-07-17T10:05:51.169Z,100130.28
2018-07-17T10:08:21.569Z,100129.84
2018-07-17T10:10:51.678Z,100140.53
2018-07-17T10:13:22.055Z,100129.52
2018-07-17T10:15:52.494Z,100138.87
2018-07-17T10:18:22.285Z,100133.47
2018-07-17T10:20:51.980Z,100128.31
2018-07-17T10:23:21.723Z,100136.92
2018-07-17T10:25:51.600Z,100132.98
2018-07-17T10:28:21.938Z,100128.60
2018-07-17T10:30:51.586Z,100123.71
2018-07-17T10:33:21.453Z,100132.80
2018-07-17T10:35:51.106Z,100130.83
2018-07-17T10:38:20.929Z,100136.46
2018-07-17T10:40:51.352Z,100134.00
2018-07-17T10:43:21.313Z,100138.37
2018-07-17T10:45:51.065Z,100137.28
2018-07-17T10:48:20.858Z,100134.03
2018-07-17T10:50:50.598Z,100130.56
2018-07-17T10:53:20.240Z,100130.75
2018-07-17T10:55:50.331Z,100133.55
2018-07-17T10:58:20.124Z,100126.02
2018-07-17T11:00:49.933Z,100136.30
2018-07-17T11:03:20.274Z,100132.93
2018-07-17T11:05:50.268Z,100124.83
2018-07-17T11:08:20.634Z,100131.05
2018-07-17T11:10:50.626Z,100133.54
2018-07-17T11:13:20.366Z,100127.47
2018-07-17T11:15:50.578Z,100129.34
2018-07-17T11:18:20.386Z,100122.80
2018-07-17T11:20:50.408Z,100132.22
2018-07-17T11:23:21.094Z,100130.62
2018-07-17T11:25:51.236Z,100126.83
2018-07-17T11:28:20.973Z,100119.88
2018-07-17T11:30:51.341Z,100118.03
2018-07-17T11:33:21.475Z,100115.77
2018-07-17T11:35:51.657Z,100123.49
2018-07-17T11:38:22.088Z,100118.22
2018-07-17T11:40:52.060Z,100125.66
2018-07-17T11:43:21.782Z,100112.09
2018-07-17T11:45:51.733Z,100122.77
2018-07-17T11:48:21.503Z,100112.88
2018-07-17T11:50:51.754Z,100104.58
2018-07-17T11:53:21.875Z,100102.85
2018-07-17T11:55:51.954Z,100107.10
2018-07-17T11:58:21.778Z,100110.77
2018-07-17T12:00:51.660Z,100103.49
2018-07-17T12:03:21.346Z,100089.80
2018-07-17T12:05:52.568Z,100095.99
2018-07-17T12:08:22.180Z,100099.30
2018-07-17T12:10:52.022Z,100108.27
2018-07-17T12:13:22.478Z,100100.05
2018-07-17T12:15:52.193Z,100101.02
2018-07-17T12:18:21.879Z,100096.77
2018-07-17T12:20:51.516Z,100091.53
2018-07-17T12:23:21.469Z,100095.61
2018-07-17T12:25:51.130Z,100085.73
2018-07-17T12:28:20.790Z,100084.75
2018-07-17T12:30:50.453Z,100096.95
2018-07-17T12:33:20.065Z,100098.13
2018-07-17T12:35:49.815Z,100097.81
2018-07-17T12:38:19.716Z,100097.55
2018-07-17T12:40:49.400Z,100086.27
2018-07-17T12:43:19.168Z,100087.84
2018-07-17T12:45:48.817Z,100090.48
2018-07-17T12:48:18.435Z,100092.52
2018-07-17T12:50:48.219Z,100086.94
2018-07-17T12:53:17.935Z,100089.24
2018-07-17T12:55:47.595Z,100089.20
2018-07-17T12:58:17.303Z,100092.19
2018-07-17T13:00:47.586Z,100087.16
2018-07-17T13:03:17.237Z,100089.66
2018-07-17T13:05:46.847Z,100083.95
2018-07-17T13:08:17.314Z,100081.63
2018-07-17T13:10:47.050Z,100075.44
2018-07-17T13:13:16.729Z,100080.31
2018-07-17T13:15:46.653Z,100078.34
2018-07-17T13:18:16.523Z,100079.48
2018-07-17T13:20:46.276Z,100085.63
2018-07-17T13:23:16.084Z,100078.53
2018-07-17T13:25:45.744Z,100069.73
2018-07-17T13:28:16.066Z,100082.77
2018-07-17T13:30:45.721Z,100073.56
2018-07-17T13:33:15.363Z,100071.28
2018-07-17T13:35:45.612Z,100073.22
2018-07-17T13:38:15.430Z,100074.77
2018-07-17T13:40:45.137Z,100080.51
2018-07-17T13:43:14.850Z,100073.15
2018-07-17T13:45:44.535Z,100071.71
2018-07-17T13:48:14.298Z,100065.41
2018-07-17T13:50:44.030Z,100059.95
2018-07-17T13:53:13.889Z,100059.13
2018-07-17T13:55:43.701Z,100059.02
2018-07-17T13:58:13.335Z,100063.38
2018-07-17T14:00:43.710Z,100064.00
2018-07-17T14:03:13.707Z,100052.77
2018-07-17T14:05:44.215Z,100057.12
2018-07-17T14:08:15.317Z,100054.02
2018-07-17T14:10:45.929Z,100059.95
2018-07-17T14:13:15.660Z,100057.22
2018-07-17T14:15:45.390Z,100051.63
2018-07-17T14:18:15.075Z,100051.86
2018-07-17T14:20:45.217Z,100050.93
2018-07-17T14:23:15.231Z,100053.80
2018-07-17T14:25:45.627Z,100054.09
2018-07-17T14:28:15.497Z,100046.44
2018-07-17T14:30:46.686Z,100044.59
2018-07-17T14:33:16.695Z,100047.59
2018-07-17T14:35:46.446Z,100050.84
2018-07-17T14:38:16.209Z,100051.17
2018-07-17T14:40:46.033Z,100050.33
2018-07-17T14:43:15.645Z,100049.53
2018-07-17T14:45:46.247Z,100045.23
2018-07-17T14:48:16.051Z,100054.11
2018-07-17T14:50:45.899Z,100053.11
2018-07-17T14:53:15.876Z,100052.59
2018-07-17T14:55:45.494Z,100053.00
2018-07-17T14:58:15.245Z,100050.13
2018-07-17T15:00:44.937Z,100053.52
2018-07-17T15:03:14.683Z,100047.73
2018-07-17T15:05:44.308Z,100045.20
2018-07-17T15:08:14.011Z,100042.91
2018-07-17T15:10:44.292Z,100044.95
2018-07-17T15:13:13.986Z,100041.81
2018-07-17T15:15:43.868Z,100040.09
2018-07-17T15:18:13.778Z,100045.33
2018-07-17T15:20:43.390Z,100042.48
2018-07-17T15:23:13.217Z,100047.60
2018-07-17T15:25:42.832Z,100045.73
2018-07-17T15:28:12.818Z,100048.13
2018-07-17T15:30:42.516Z,100042.55
2018-07-17T15:33:12.715Z,100043.61
2018-07-17T15:35:42.441Z,100042.06
2018-07-17T15:38:12.610Z,100045.42
2018-07-17T15:40:42.847Z,100048.34
2018-07-17T15:43:12.848Z,100043.98
2018-07-17T15:45:43.245Z,100048.86
2018-07-17T15:48:13.286Z,100045.85
2018-07-17T15:50:42.956Z,100049.81
2018-07-17T15:53:12.649Z,100050.75
2018-07-17T15:55:42.356Z,100052.84
2018-07-17T15:58:13.372Z,100044.56
2018-07-17T16:00:43.027Z,100048.95
2018-07-17T16:03:13.505Z,100045.27
2018-07-17T16:05:43.773Z,100042.94
2018-07-17T16:08:13.806Z,100040.29
2018-07-17T16:10:44.070Z,100042.08
2018-07-17T16:13:14.232Z,100038.09
2018-07-17T16:15:43.911Z,100041.44
2018-07-17T16:18:14.235Z,100044.94
2018-07-17T16:20:44.642Z,100043.00
2018-07-17T16:23:15.468Z,100033.98
2018-07-17T16:25:45.206Z,100033.41
2018-07-17T16:28:15.207Z,100033.41
2018-07-17T16:30:44.954Z,100035.44
2018-07-17T16:33:14.903Z,100033.00
2018-07-17T16:35:44.642Z,100032.73
2018-07-17T16:38:14.475Z,100034.25
2018-07-17T16:40:44.119Z,100032.79
2018-07-17T16:43:13.945Z,100038.18
2018-07-17T16:45:43.555Z,100037.81
2018-07-17T16:48:13.529Z,100038.00
2018-07-17T16:50:43.510Z,100033.85
2018-07-17T16:53:13.211Z,100028.28
2018-07-17T16:55:42.957Z,100037.27
2018-07-17T16:58:12.687Z,100028.19
2018-07-17T17:00:42.391Z,100042.17
2018-07-17T17:03:12.093Z,100038.00
2018-07-17T17:05:41.788Z,100036.80
2018-07-17T17:08:12.028Z,100040.02
2018-07-17T17:10:41.713Z,100036.41
2018-07-17T17:13:12.264Z,100029.36
2018-07-17T17:15:42.295Z,100031.34
2018-07-17T17:18:11.955Z,100034.16
2018-07-17T17:20:41.719Z,100035.91
2018-07-17T17:23:11.677Z,100040.34
2018-07-17T17:25:41.313Z,100048.27
2018-07-17T17:28:11.021Z,100044.28
2018-07-17T17:30:40.829Z,100051.09
2018-07-17T17:33:11.054Z,100053.77
2018-07-17T17:35:40.851Z,100056.65
2018-07-17T17:38:13.547Z,100061.70
2018-07-17T17:40:43.647Z,100067.30
2018-07-17T17:43:13.370Z,100066.50
2018-07-17T17:45:43.187Z,100066.25
2018-07-17T17:48:13.336Z,100069.78
2018-07-17T17:50:42.991Z,100074.55
2018-07-17T17:53:12.796Z,100069.34
2018-07-17T17:55:42.515Z,100078.58
2018-07-17T17:58:12.260Z,100083.81
2018-07-17T18:00:42.174Z,100082.74
2018-07-17T18:03:11.904Z,100093.70
2018-07-17T18:05:42.273Z,100084.71
2018-07-17T18:08:12.268Z,100090.93
2018-07-17T18:10:42.234Z,100091.50
2018-07-17T18:13:12.118Z,100101.58
2018-07-17T18:15:42.121Z,100100.88
2018-07-17T18:18:11.961Z,100111.51
2018-07-17T18:20:41.601Z,100108.79
2018-07-17T18:23:11.230Z,100110.83
2018-07-17T18:25:41.443Z,100112.20
2018-07-17T18:28:11.346Z,100108.08
2018-07-17T18:30:41.636Z,100112.01
2018-07-17T18:33:11.956Z,100122.56
2018-07-17T18:35:42.167Z,100122.31
2018-07-17T18:38:12.141Z,100119.59
2018-07-17T18:40:42.005Z,100122.15
2018-07-17T18:43:11.753Z,100127.20
2018-07-17T18:45:41.552Z,100130.64
2018-07-17T18:48:11.323Z,100134.09
2018-07-17T18:50:45.118Z,100136.50
2018-07-17T18:53:14.857Z,100140.52
2018-07-17T18:55:44.686Z,100149.55
2018-07-17T18:58:14.477Z,100143.70
2018-07-17T19:00:44.184Z,100152.53
2018-07-17T19:03:14.161Z,100149.69
2018-07-17T19:05:43.956Z,100152.37
2018-07-17T19:08:13.656Z,100157.49
2018-07-17T19:10:43.782Z,100158.25
2018-07-17T19:13:13.513Z,100160.03
2018-07-17T19:15:43.386Z,100171.83
2018-07-17T19:18:13.102Z,100175.16
2018-07-17T19:20:42.886Z,100173.56
2018-07-17T19:23:12.689Z,100176.41
2018-07-17T19:25:42.424Z,100176.73
2018-07-17T19:28:12.096Z,100178.11
2018-07-17T19:30:41.952Z,100181.64
2018-07-17T19:33:11.791Z,100186.02
2018-07-17T19:35:41.862Z,100188.94
2018-07-17T19:38:11.696Z,100192.47
2018-07-17T19:40:41.578Z,100191.11
2018-07-17T19:43:11.374Z,100198.77
2018-07-17T19:45:41.094Z,100204.33
2018-07-17T19:48:11.055Z,100206.85
2018-07-17T19:50:40.816Z,100214.99
2018-07-17T19:53:10.488Z,100225.75
2018-07-17T19:55:40.192Z,100225.05
2018-07-17T19:58:10.143Z,100228.09
2018-07-17T20:00:40.084Z,100239.30
2018-07-17T20:03:09.831Z,100236.66
2018-07-17T20:05:39.416Z,100239.25
2018-07-17T20:08:09.323Z,100245.97
2018-07-17T20:10:39.103Z,100251.83
2018-07-17T20:13:08.767Z,100255.07
2018-07-17T20:15:38.493Z,100252.27
2018-07-17T20:18:08.328Z,100252.52
2018-07-17T20:20:38.464Z,100255.80
2018-07-17T20:23:08.141Z,100265.33
2018-07-17T20:25:37.963Z,100260.59
2018-07-17T20:28:08.124Z,100271.39
2018-07-17T20:30:37.926Z,100272.33
2018-07-17T20:33:08.313Z,100275.52
2018-07-17T20:35:38.506Z,100271.02
2018-07-17T20:38:09.367Z,100276.29
2018-07-17T20:40:38.873Z,100275.29
2018-07-17T20:43:08.516Z,100273.47
2018-07-17T20:45:38.346Z,100272.61
2018-07-17T20:48:08.400Z,100285.94
2018-07-17T20:50:37.840Z,100289.83
2018-07-17T20:53:07.734Z,100293.52
2018-07-17T20:55:38.537Z,100285.43
2018-07-17T20:58:08.735Z,100293.08
2018-07-17T21:00:38.436Z,100294.48
2018-07-17T21:03:08.550Z,100294.55
2018-07-17T21:05:38.743Z,100307.61
2018-07-17T21:08:09.236Z,100308.95
2018-07-17T21:10:39.565Z,100309.27
2018-07-17T21:13:09.919Z,100316.94
2018-07-17T21:15:39.961Z,100318.02
2018-07-17T21:18:09.723Z,100328.55
2018-07-17T21:20:40.486Z,100330.91
2018-07-17T21:23:10.142Z,100329.20
2018-07-17T21:25:40.020Z,100332.77
2018-07-17T21:28:09.578Z,100342.09
2018-07-17T21:30:39.695Z,100346.41
2018-07-17T21:33:09.500Z,100346.50
2018-07-17T21:35:39.610Z,100353.87
2018-07-17T21:38:09.334Z,100358.23
2018-07-17T21:40:39.393Z,100363.98
2018-07-17T21:43:09.098Z,100364.86
2018-07-17T21:45:38.966Z,100365.89
2018-07-17T21:48:08.682Z,100368.85
2018-07-17T21:50:38.633Z,100363.25
2018-07-17T21:53:08.501Z,100354.91
2018-07-17T21:55:38.396Z,100356.05
2018-07-17T21:58:08.335Z,100353.91
2018-07-17T22:00:38.115Z,100354.72
2018-07-17T22:03:07.888Z,100358.58
2018-07-17T22:05:37.673Z,100362.13
2018-07-17T22:08:07.154Z,100363.48
2018-07-17T22:10:36.804Z,100371.62
2018-07-17T22:13:06.680Z,100375.17
2018-07-17T22:15:36.313Z,100380.03
2018-07-17T22:18:06.129Z,100379.78
2018-07-17T22:20:35.686Z,100382.23
2018-07-17T22:23:05.629Z,100391.99
2018-07-17T22:25:35.392Z,100391.21
2018-07-17T22:28:05.354Z,100396.08
2018-07-17T22:30:35.062Z,100402.29
2018-07-17T22:33:04.789Z,100402.34
2018-07-17T22:35:34.453Z,100408.30
2018-07-17T22:38:04.326Z,100410.72
2018-07-17T22:40:35.115Z,100409.11
2018-07-17T22:43:04.729Z,100412.66
2018-07-17T22:45:34.394Z,100409.14
2018-07-17T22:48:04.141Z,100399.14
2018-07-17T22:50:33.810Z,100408.06
2018-07-17T22:53:03.514Z,100413.47
2018-07-17T22:55:33.250Z,100411.83
2018-07-17T22:58:02.846Z,100415.33
2018-07-17T23:00:32.563Z,100422.36
2018-07-17T23:03:02.292Z,100428.80
2018-07-17T23:05:31.953Z,100437.19
2018-07-17T23:08:01.630Z,100436.62
2018-07-17T23:10:31.421Z,100442.54
2018-07-17T23:13:01.848Z,100449.84
2018-07-17T23:15:31.222Z,100466.02
2018-07-17T23:18:01.075Z,100457.66
2018-07-17T23:20:32.027Z,100459.31
2018-07-17T23:23:01.689Z,100464.70
2018-07-17T23:25:32.650Z,100470.12
2018-07-17T23:28:02.597Z,100460.37
2018-07-17T23:30:32.240Z,100466.03
2018-07-17T23:33:01.896Z,100464.41
2018-07-17T23:35:31.315Z,100460.34
2018-07-17T23:38:01.657Z,100461.39
2018-07-17T23:40:31.289Z,100458.98
2018-07-17T23:43:00.996Z,100457.33
2018-07-17T23:45:30.575Z,100454.63
2018-07-17T23:48:00.324Z,100450.05
2018-07-17T23:50:29.989Z,100459.25
2018-07-17T23:52:59.850Z,100455.55
2018-07-17T23:55:29.464Z,100455.51
2018-07-17T23:57:59.844Z,100462.42
